Time;durP1;ratioP1;P1;durP2;ratioP2;P2;SDS_P1;SDS_P2;PMS_P1;PMS_P2;Temp;Humidity;BMP_temperature;BMP_pressure;BME280_temperature;BME280_humidity;BME280_pressure;Samples;Min_cycle;Max_cycle;Signal;HPM_P1;HPM_P2
2024/03/17 05:01:49;;;;;;;0.70;0.70;;;2.20;99.90;;;;;;5324949;23;20248;-70
2024/03/17 05:04:16;;;;;;;1.75;1.48;;;2.10;99.90;;;;;;4958329;28;20687;-70
2024/03/17 05:06:46;;;;;;;2.40;1.40;;;2.10;99.90;;;;;;4985686;28;20222;-70
2024/03/17 05:09:14;;;;;;;1.98;0.75;;;2.10;99.90;;;;;;4961364;28;20216;-70
2024/03/17 05:11:40;;;;;;;7.40;1.85;;;2.00;99.90;;;;;;4965303;28;20233;-70
2024/03/17 05:14:08;;;;;;;0.80;0.80;;;2.00;99.90;;;;;;4965880;28;20213;-71
2024/03/17 05:16:35;;;;;;;0.73;0.73;;;2.00;99.90;;;;;;4949278;28;20237;-71
2024/03/17 05:19:03;;;;;;;2.38;1.10;;;1.90;99.90;;;;;;4944931;28;20236;-72
2024/03/17 05:21:30;;;;;;;10.60;1.92;;;1.90;99.90;;;;;;4967992;28;20230;-71
2024/03/17 05:23:57;;;;;;;4.32;0.93;;;1.90;99.90;;;;;;4943327;28;20210;-70
2024/03/17 05:26:25;;;;;;;1.42;1.30;;;1.90;99.90;;;;;;4943196;28;20217;-70
2024/03/17 05:28:51;;;;;;;1.92;1.83;;;1.80;99.90;;;;;;4950208;28;20276;-70
2024/03/17 05:31:18;;;;;;;3.78;1.23;;;1.80;99.90;;;;;;4951491;28;20226;-71
2024/03/17 05:33:45;;;;;;;0.65;0.65;;;1.80;99.90;;;;;;4940939;28;20233;-71
2024/03/17 05:36:13;;;;;;;6.75;1.52;;;1.80;99.90;;;;;;4950030;28;20217;-71
2024/03/17 05:38:40;;;;;;;2.65;1.10;;;1.80;99.90;;;;;;4947829;28;20209;-72
2024/03/17 05:41:08;;;;;;;5.53;1.38;;;1.80;99.90;;;;;;4944593;28;20241;-71
2024/03/17 05:43:37;;;;;;;0.95;0.95;;;1.80;99.90;;;;;;4951038;28;20222;-70
2024/03/17 05:46:06;;;;;;;1.35;0.88;;;1.80;99.90;;;;;;4941568;28;20206;-71
2024/03/17 05:48:33;;;;;;;0.43;0.30;;;1.70;99.90;;;;;;4940568;28;20299;-70
2024/03/17 05:51:03;;;;;;;1.02;1.02;;;1.80;99.90;;;;;;4937635;28;21139;-70
2024/03/17 05:53:32;;;;;;;1.75;0.90;;;1.80;99.90;;;;;;4930424;28;20269;-71
2024/03/17 05:56:00;;;;;;;2.05;0.85;;;1.80;99.90;;;;;;4937808;28;20329;-71
2024/03/17 05:58:26;;;;;;;0.65;0.65;;;1.80;99.90;;;;;;4937477;28;20237;-71
2024/03/17 06:00:53;;;;;;;2.47;1.25;;;1.80;99.90;;;;;;4932993;28;20625;-71
2024/03/17 06:03:21;;;;;;;4.45;1.58;;;1.80;99.90;;;;;;4936046;28;20213;-71
2024/03/17 06:05:48;;;;;;;0.75;0.65;;;1.80;99.90;;;;;;4929937;28;20213;-71
2024/03/17 06:08:16;;;;;;;5.80;2.55;;;1.80;99.90;;;;;;4938286;28;20218;-71
2024/03/17 06:10:46;;;;;;;2.13;0.90;;;1.80;99.90;;;;;;4931210;28;20237;-71
2024/03/17 06:13:14;;;;;;;9.02;1.00;;;1.90;99.90;;;;;;4930447;28;20722;-71
2024/03/17 06:15:41;;;;;;;2.58;1.48;;;1.90;99.90;;;;;;4927984;28;20241;-71
2024/03/17 06:18:11;;;;;;;4.05;2.17;;;2.00;99.90;;;;;;4930837;28;20763;-71
2024/03/17 06:20:41;;;;;;;15.02;1.80;;;2.00;99.90;;;;;;4933767;28;20461;-71
2024/03/17 06:23:08;;;;;;;3.35;1.63;;;2.00;99.90;;;;;;4928722;28;20212;-71
2024/03/17 06:25:39;;;;;;;1.40;1.40;;;2.00;99.90;;;;;;4952732;28;20301;-71
2024/03/17 06:28:08;;;;;;;3.88;1.33;;;2.10;99.90;;;;;;4926926;28;20213;-71
2024/03/17 06:30:35;;;;;;;4.15;2.75;;;2.20;99.90;;;;;;4936674;28;20233;-71
2024/03/17 06:33:02;;;;;;;1.40;1.30;;;2.20;99.90;;;;;;4929459;28;20230;-71
2024/03/17 06:35:30;;;;;;;1.67;1.40;;;2.20;99.90;;;;;;4942240;28;20206;-71
2024/03/17 06:38:00;;;;;;;1.17;1.17;;;2.30;99.90;;;;;;4952879;28;20301;-72
2024/03/17 06:40:28;;;;;;;4.38;1.42;;;2.40;99.90;;;;;;4940374;28;20202;-71
2024/03/17 06:42:54;;;;;;;17.85;1.75;;;2.50;99.90;;;;;;4938849;28;20293;-71
2024/03/17 06:45:24;;;;;;;1.77;1.05;;;2.60;99.90;;;;;;4930670;28;20210;-71
2024/03/17 06:47:51;;;;;;;2.63;2.55;;;2.60;99.90;;;;;;4928445;28;20669;-71
2024/03/17 06:50:17;;;;;;;1.58;1.35;;;2.60;99.90;;;;;;4942217;28;20206;-70
2024/03/17 06:52:44;;;;;;;2.83;1.48;;;2.70;99.90;;;;;;4945758;28;20241;-71
2024/03/17 06:55:12;;;;;;;3.00;1.58;;;2.70;99.90;;;;;;4930712;28;20577;-71
2024/03/17 06:57:39;;;;;;;2.47;2.28;;;2.70;99.90;;;;;;4946054;28;20305;-71
2024/03/17 07:00:13;;;;;;;22.90;11.20;;;2.80;99.90;;;;;;4947910;28;20206;-71
2024/03/17 07:02:43;;;;;;;9.40;4.60;;;2.80;99.90;;;;;;4932948;28;20213;-71
2024/03/17 07:05:14;;;;;;;4.45;4.15;;;2.90;99.90;;;;;;4945889;28;20574;-71
2024/03/17 07:07:40;;;;;;;10.23;5.00;;;3.00;99.90;;;;;;4944646;28;20217;-70
2024/03/17 07:10:08;;;;;;;2.75;2.55;;;3.00;99.90;;;;;;4931099;28;20725;-71
2024/03/17 07:12:35;;;;;;;11.50;4.55;;;3.10;99.90;;;;;;4930258;28;20599;-71
2024/03/17 07:15:02;;;;;;;9.95;2.95;;;3.20;99.90;;;;;;4945848;28;20615;-70
2024/03/17 07:17:28;;;;;;;1.90;1.75;;;3.20;99.90;;;;;;4950931;28;20207;-71
2024/03/17 07:19:56;;;;;;;3.25;2.22;;;3.20;99.90;;;;;;4937441;28;20213;-71
2024/03/17 07:22:26;;;;;;;2.22;1.92;;;3.20;99.90;;;;;;4930231;28;20230;-70
2024/03/17 07:24:55;;;;;;;1.95;1.85;;;3.30;99.90;;;;;;4931574;28;20223;-71
2024/03/17 07:27:22;;;;;;;2.53;2.33;;;3.30;99.90;;;;;;4941107;28;20596;-71
2024/03/17 07:29:49;;;;;;;1.58;1.55;;;3.40;99.90;;;;;;4931017;28;20218;-71
2024/03/17 07:32:15;;;;;;;2.42;2.28;;;3.40;99.90;;;;;;4929312;28;20230;-71
2024/03/17 07:34:42;;;;;;;6.38;3.15;;;3.50;99.90;;;;;;4930509;28;20223;-71
2024/03/17 07:37:10;;;;;;;3.13;2.25;;;3.60;99.90;;;;;;4927344;28;20209;-71
2024/03/17 07:39:37;;;;;;;6.20;3.88;;;3.70;99.90;;;;;;4929814;28;20207;-71
2024/03/17 07:42:04;;;;;;;13.25;5.50;;;3.80;99.90;;;;;;4934178;28;20313;-71
2024/03/17 07:44:33;;;;;;;2.10;2.00;;;3.90;99.90;;;;;;4931755;28;20211;-71
2024/03/17 07:47:00;;;;;;;11.88;1.90;;;4.00;99.90;;;;;;4937994;28;20286;-71
2024/03/17 07:49:27;;;;;;;10.13;6.35;;;4.10;99.90;;;;;;4924842;28;20220;-70
2024/03/17 07:51:54;;;;;;;5.25;4.60;;;4.20;99.90;;;;;;4926441;28;20650;-70
2024/03/17 07:54:22;;;;;;;10.48;5.88;;;4.30;99.90;;;;;;4944040;28;20322;-71
2024/03/17 07:56:48;;;;;;;20.58;4.95;;;4.40;99.90;;;;;;4931439;28;20209;-72
2024/03/17 07:59:17;;;;;;;7.53;2.30;;;4.40;99.90;;;;;;4946170;28;20289;-72
2024/03/17 08:01:44;;;;;;;2.10;2.00;;;4.50;99.90;;;;;;4923104;28;20270;-71
2024/03/17 08:04:11;;;;;;;3.70;2.65;;;4.60;99.90;;;;;;4964521;28;20202;-70
2024/03/17 08:06:38;;;;;;;2.90;1.85;;;4.70;99.90;;;;;;4932973;28;20210;-72
2024/03/17 08:09:05;;;;;;;2.25;2.15;;;4.80;99.90;;;;;;4927168;28;20235;-70
2024/03/17 08:11:33;;;;;;;1.42;1.42;;;5.00;99.90;;;;;;4934495;28;20235;-70
2024/03/17 08:14:01;;;;;;;5.28;1.80;;;5.10;99.90;;;;;;4939496;28;20226;-70
2024/03/17 08:16:29;;;;;;;1.15;1.05;;;5.20;99.90;;;;;;4929320;28;20210;-71
2024/03/17 08:18:56;;;;;;;2.28;1.67;;;5.30;99.90;;;;;;4930141;28;20206;-71
2024/03/17 08:21:22;;;;;;;6.25;1.45;;;5.40;99.90;;;;;;4928047;28;20233;-71
2024/03/17 08:23:49;;;;;;;4.68;1.50;;;5.40;99.90;;;;;;4939504;28;20218;-71
2024/03/17 08:26:16;;;;;;;1.15;1.15;;;5.50;99.90;;;;;;4929796;28;20214;-72
2024/03/17 08:28:44;;;;;;;7.05;2.10;;;5.60;99.90;;;;;;4927513;28;20221;-71
2024/03/17 08:31:12;;;;;;;2.35;2.25;;;5.60;99.90;;;;;;4929540;28;20232;-72
2024/03/17 08:33:39;;;;;;;6.18;1.48;;;5.70;99.90;;;;;;4932707;28;20230;-70
2024/03/17 08:36:07;;;;;;;1.55;0.93;;;5.80;99.90;;;;;;4938643;28;20250;-71
2024/03/17 08:38:35;;;;;;;1.98;0.98;;;5.90;99.90;;;;;;4933244;28;20262;-71
2024/03/17 08:41:04;;;;;;;2.47;2.03;;;6.10;99.90;;;;;;4933630;28;20260;-72
2024/03/17 08:43:32;;;;;;;3.80;0.77;;;6.20;99.90;;;;;;4930715;28;20222;-71
2024/03/17 08:46:03;;;;;;;7.90;1.45;;;6.20;99.90;;;;;;4935281;28;20229;-70
2024/03/17 08:48:31;;;;;;;4.22;0.90;;;6.30;99.90;;;;;;4929038;28;20232;-70
2024/03/17 08:50:58;;;;;;;4.30;0.75;;;6.40;99.90;;;;;;4944946;28;20253;-70
2024/03/17 08:53:26;;;;;;;2.05;0.98;;;6.60;99.90;;;;;;4937638;28;20262;-70
2024/03/17 08:55:53;;;;;;;5.30;1.10;;;6.60;99.90;;;;;;4938831;28;20210;-70
2024/03/17 08:58:20;;;;;;;0.60;0.45;;;6.70;99.90;;;;;;4950974;28;20212;-70
2024/03/17 09:00:47;;;;;;;3.08;0.70;;;6.80;99.90;;;;;;4930128;28;20598;-70
2024/03/17 09:03:15;;;;;;;0.55;0.55;;;6.90;99.90;;;;;;4932962;28;20219;-70
2024/03/17 09:05:43;;;;;;;0.47;0.47;;;6.90;99.90;;;;;;4932247;28;20688;-70
2024/03/17 09:08:16;;;;;;;1.38;0.75;;;7.00;99.90;;;;;;4929642;28;20202;-70
2024/03/17 09:10:44;;;;;;;3.78;0.38;;;7.00;99.90;;;;;;4954536;28;20608;-71
2024/03/17 09:13:14;;;;;;;0.68;0.63;;;7.10;99.90;;;;;;4932392;28;20238;-71
2024/03/17 09:15:41;;;;;;;0.40;0.40;;;7.10;99.90;;;;;;4932170;28;20222;-71
2024/03/17 09:18:08;;;;;;;0.30;0.30;;;7.20;99.90;;;;;;4932302;28;20665;-71
2024/03/17 09:20:36;;;;;;;0.93;0.80;;;7.30;99.90;;;;;;4959841;28;20305;-71
2024/03/17 09:23:03;;;;;;;1.13;0.68;;;7.30;99.90;;;;;;4932475;28;20211;-71
2024/03/17 09:25:30;;;;;;;0.65;0.65;;;7.30;99.90;;;;;;4931504;28;20207;-70
2024/03/17 09:27:56;;;;;;;1.48;0.47;;;7.40;99.90;;;;;;4931804;28;20214;-71
2024/03/17 09:30:23;;;;;;;0.98;0.93;;;7.40;99.90;;;;;;4931487;28;20231;-71
2024/03/17 09:32:50;;;;;;;0.57;0.57;;;7.40;99.90;;;;;;4932001;28;20210;-71
2024/03/17 09:35:16;;;;;;;0.52;0.50;;;7.50;99.90;;;;;;4931468;28;20574;-71
2024/03/17 09:37:44;;;;;;;3.25;0.85;;;7.50;99.90;;;;;;4931807;28;20683;-71
2024/03/17 09:40:15;;;;;;;0.75;0.75;;;7.50;99.90;;;;;;4953018;28;20224;-71
2024/03/17 09:42:43;;;;;;;0.40;0.40;;;7.50;99.90;;;;;;4931559;28;20215;-71
2024/03/17 09:45:11;;;;;;;3.95;0.47;;;7.60;99.90;;;;;;4931921;28;20213;-71
2024/03/17 09:47:39;;;;;;;1.25;0.80;;;7.70;99.90;;;;;;4931705;28;20288;-71
2024/03/17 09:50:13;;;;;;;2.13;2.03;;;7.70;99.90;;;;;;4943525;28;20734;-72
2024/03/17 09:52:41;;;;;;;0.70;0.70;;;7.80;99.90;;;;;;4932534;28;20701;-71
2024/03/17 09:55:14;;;;;;;0.90;0.90;;;7.90;99.90;;;;;;4931713;28;20777;-71
2024/03/17 09:57:41;;;;;;;2.30;0.60;;;8.00;99.90;;;;;;4931662;28;20291;-71
2024/03/17 10:00:14;;;;;;;3.92;0.77;;;8.00;99.90;;;;;;4931598;28;20217;-71
2024/03/17 10:02:45;;;;;;;0.60;0.60;;;8.00;99.90;;;;;;4936038;28;20227;-72
2024/03/17 10:05:22;;;;;;;1.83;0.70;;;8.00;99.90;;;;;;4931345;28;20233;-72
2024/03/17 10:07:49;;;;;;;0.80;0.80;;;8.10;99.90;;;;;;4930278;28;20259;-73
2024/03/17 10:10:18;;;;;;;1.50;0.45;;;8.20;99.90;;;;;;4943006;28;20239;-72
2024/03/17 10:12:49;;;;;;;0.50;0.43;;;8.30;99.90;;;;;;4931230;28;20739;-72
2024/03/17 10:15:16;;;;;;;0.30;0.30;;;8.30;99.90;;;;;;4931445;28;20237;-72
2024/03/17 10:17:43;;;;;;;0.68;0.68;;;8.40;99.90;;;;;;4930720;28;20671;-72
2024/03/17 10:20:15;;;;;;;1.17;0.47;;;8.40;99.90;;;;;;4946254;28;20308;-71
2024/03/17 10:22:57;;;;;;;0.50;0.50;;;8.40;99.90;;;;;;4931466;28;20239;-72
2024/03/17 10:25:25;;;;;;;3.20;0.95;;;8.40;99.90;;;;;;4931565;28;20220;-72
2024/03/17 10:27:53;;;;;;;0.47;0.47;;;8.30;99.90;;;;;;4929742;28;20213;-72
2024/03/17 10:30:21;;;;;;;2.15;0.50;;;8.30;99.90;;;;;;4932057;28;20217;-72
2024/03/17 10:32:54;;;;;;;0.82;0.82;;;8.30;99.90;;;;;;4930740;28;20282;-71
2024/03/17 10:35:29;;;;;;;2.90;0.85;;;8.30;99.90;;;;;;4931715;28;20239;-70
2024/03/17 10:37:57;;;;;;;1.02;1.02;;;8.20;99.90;;;;;;4929874;28;20678;-71
2024/03/17 10:40:26;;;;;;;1.33;0.73;;;8.20;99.90;;;;;;4931706;28;20214;-72
2024/03/17 10:42:53;;;;;;;1.38;0.68;;;8.20;99.90;;;;;;4931283;28;20216;-72
2024/03/17 10:45:21;;;;;;;8.18;0.90;;;8.10;99.90;;;;;;4930689;28;20242;-72
2024/03/17 10:47:49;;;;;;;2.05;0.57;;;8.20;99.90;;;;;;4930295;28;20219;-72
2024/03/17 10:50:19;;;;;;;1.00;0.55;;;8.20;99.90;;;;;;4931867;28;20213;-72
2024/03/17 10:52:49;;;;;;;0.90;0.90;;;8.20;99.90;;;;;;4931034;28;20213;-71
2024/03/17 10:55:23;;;;;;;0.63;0.30;;;8.30;99.90;;;;;;4929974;28;20336;-71
2024/03/17 10:57:52;;;;;;;0.65;0.65;;;8.30;99.90;;;;;;4933976;28;20252;-71
2024/03/17 11:00:21;;;;;;;11.05;7.70;;;8.30;99.90;;;;;;4928396;28;20240;-71
2024/03/17 11:02:49;;;;;;;5.28;1.65;;;8.30;99.90;;;;;;4929309;28;20246;-71
2024/03/17 11:05:17;;;;;;;6.13;0.63;;;8.30;99.90;;;;;;4942263;28;20255;-70
2024/03/17 11:07:46;;;;;;;2.15;0.93;;;8.30;99.90;;;;;;4929939;28;20261;-72
2024/03/17 11:10:17;;;;;;;1.60;0.88;;;8.40;99.90;;;;;;4934249;28;20212;-72
2024/03/17 11:12:47;;;;;;;0.70;0.70;;;8.40;99.90;;;;;;4930606;28;20213;-72
2024/03/17 11:15:45;;;;;;;4.78;0.88;;;8.40;99.90;;;;;;4930039;28;20603;-71
2024/03/17 11:18:39;;;;;;;0.68;0.60;;;8.50;99.90;;;;;;4982516;28;20207;-71
2024/03/17 11:21:21;;;;;;;6.00;1.17;;;8.60;99.90;;;;;;4927227;28;20229;-71
2024/03/17 11:23:59;;;;;;;0.30;0.30;;;8.60;99.90;;;;;;4931055;28;20279;-72
2024/03/17 11:26:29;;;;;;;0.60;0.60;;;8.70;99.90;;;;;;4959221;28;20610;-71
2024/03/17 11:28:57;;;;;;;6.70;5.43;;;8.70;99.90;;;;;;4938872;28;20217;-71
2024/03/17 11:31:35;;;;;;;9.32;1.10;;;8.80;99.90;;;;;;4953624;28;20307;-72
2024/03/17 11:34:03;;;;;;;2.03;1.08;;;8.90;99.90;;;;;;4929955;28;20264;-72
2024/03/17 11:36:37;;;;;;;3.90;0.82;;;8.90;99.90;;;;;;4932689;28;20209;-71
2024/03/17 11:39:06;;;;;;;1.38;0.40;;;9.00;99.90;;;;;;4930970;28;20336;-71
2024/03/17 11:41:40;;;;;;;0.30;0.30;;;9.10;99.90;;;;;;4929538;28;20230;-71
2024/03/17 11:44:24;;;;;;;3.60;0.55;;;9.10;99.90;;;;;;4923720;28;20664;-71
2024/03/17 11:46:53;;;;;;;1.77;0.40;;;9.00;99.90;;;;;;4930209;28;20209;-71
2024/03/17 11:49:22;;;;;;;0.50;0.40;;;9.00;99.90;;;;;;4930245;28;20229;-70
2024/03/17 11:51:49;;;;;;;1.67;0.57;;;9.10;99.90;;;;;;4931048;28;20230;-71
2024/03/17 11:54:18;;;;;;;2.30;0.52;;;9.00;99.90;;;;;;4930328;28;20221;-71
2024/03/17 11:56:45;;;;;;;2.47;0.68;;;9.00;99.90;;;;;;4928950;28;20210;-71
2024/03/17 11:59:12;;;;;;;6.82;5.10;;;9.00;99.90;;;;;;4930148;28;20606;-72
2024/03/17 12:01:39;;;;;;;3.70;2.33;;;9.00;99.90;;;;;;4930005;28;20249;-71
2024/03/17 12:04:08;;;;;;;1.45;1.35;;;9.10;99.90;;;;;;4931210;28;20204;-72
2024/03/17 12:06:34;;;;;;;0.70;0.70;;;9.30;99.90;;;;;;4983715;28;20213;-71
2024/03/17 12:09:20;;;;;;;1.30;0.57;;;9.40;99.90;;;;;;4933012;28;20206;-71
2024/03/17 12:11:47;;;;;;;1.15;0.60;;;9.40;99.90;;;;;;4932965;28;20551;-71
2024/03/17 12:14:16;;;;;;;0.45;0.45;;;9.50;99.90;;;;;;4932753;28;20237;-71
2024/03/17 12:16:51;;;;;;;1.10;0.82;;;9.60;99.90;;;;;;4931932;28;20593;-72
2024/03/17 12:19:19;;;;;;;2.75;0.73;;;9.60;99.90;;;;;;4933579;28;20217;-72
2024/03/17 12:21:47;;;;;;;4.88;1.73;;;9.60;99.90;;;;;;4933911;28;20230;-70
2024/03/17 12:24:17;;;;;;;1.60;0.65;;;9.70;99.90;;;;;;4931594;28;20217;-70
2024/03/17 12:26:45;;;;;;;0.85;0.60;;;9.60;99.90;;;;;;4930675;28;20216;-70
2024/03/17 12:29:25;;;;;;;0.80;0.80;;;9.70;99.90;;;;;;4933890;28;20233;-70
2024/03/17 12:31:52;;;;;;;1.08;0.40;;;9.70;99.90;;;;;;4933423;28;20222;-70
2024/03/17 12:34:21;;;;;;;0.55;0.40;;;9.80;99.90;;;;;;4935084;28;20230;-70
2024/03/17 12:36:49;;;;;;;0.77;0.77;;;9.80;99.90;;;;;;4940904;28;20214;-71
2024/03/17 12:39:19;;;;;;;0.77;0.63;;;9.80;99.90;;;;;;4932278;28;20213;-71
2024/03/17 12:41:46;;;;;;;1.55;1.10;;;9.90;99.90;;;;;;4932837;28;20226;-70
2024/03/17 12:44:22;;;;;;;0.40;0.40;;;9.90;99.90;;;;;;4932466;28;20260;-70
2024/03/17 12:46:49;;;;;;;3.03;0.82;;;9.90;99.90;;;;;;4931538;28;20259;-70
2024/03/17 12:49:14;;;;;;;1.25;0.63;;;10.00;99.90;;;;;;4932986;28;20214;-70
2024/03/17 12:51:42;;;;;;;3.27;0.43;;;10.10;99.90;;;;;;4933824;29;20241;-70
2024/03/17 12:54:15;;;;;;;0.63;0.30;;;10.20;99.90;;;;;;4931920;28;20776;-70
2024/03/17 13:02:15;;;;;;;0.50;0.50;;;10.10;99.90;;;;;;4968667;28;20239;-70
2024/03/17 13:04:42;;;;;;;1.15;0.45;;;10.10;99.90;;;;;;4940652;28;20720;-70
2024/03/17 13:07:13;;;;;;;3.05;1.80;;;10.20;99.90;;;;;;4934417;28;20216;-70
2024/03/17 13:09:40;;;;;;;0.35;0.35;;;10.30;99.90;;;;;;4931888;28;20307;-71
2024/03/17 13:12:16;;;;;;;5.00;1.70;;;10.30;99.90;;;;;;4931953;28;20229;-71
2024/03/17 13:14:43;;;;;;;0.80;0.70;;;10.30;99.90;;;;;;4943589;28;20678;-70
2024/03/17 13:17:16;;;;;;;0.88;0.88;;;10.30;99.90;;;;;;4934429;28;20323;-70
2024/03/17 13:19:46;;;;;;;4.25;0.57;;;10.30;99.70;;;;;;4934170;28;20244;-70
2024/03/17 13:22:14;;;;;;;1.58;0.77;;;10.40;99.90;;;;;;4935221;28;20340;-71
2024/03/17 13:24:41;;;;;;;1.10;0.65;;;10.40;99.80;;;;;;4937361;28;20214;-71
2024/03/17 13:27:08;;;;;;;1.65;0.60;;;10.40;99.90;;;;;;4935023;28;20229;-71
2024/03/17 13:29:35;;;;;;;0.95;0.85;;;10.30;99.50;;;;;;4933117;28;20206;-71
2024/03/17 13:32:03;;;;;;;1.27;0.70;;;10.20;99.90;;;;;;4930619;28;20245;-67
2024/03/17 13:34:30;;;;;;;0.32;0.32;;;10.20;99.90;;;;;;4963541;28;20225;-67
2024/03/17 13:36:56;;;;;;;1.30;1.30;;;10.20;99.90;;;;;;4932215;28;20217;-68
2024/03/17 13:39:31;;;;;;;0.45;0.38;;;10.10;99.90;;;;;;4932825;28;20206;-68
2024/03/17 13:42:02;;;;;;;0.90;0.90;;;10.10;99.90;;;;;;4926994;28;20225;-68
2024/03/17 13:44:29;;;;;;;1.83;0.70;;;10.10;99.90;;;;;;4959310;28;20206;-68
2024/03/17 13:46:56;;;;;;;2.85;0.77;;;9.90;99.90;;;;;;4937488;28;20236;-68
2024/03/17 13:49:23;;;;;;;1.30;0.65;;;9.90;99.90;;;;;;4954089;28;20206;-68
2024/03/17 13:53:14;;;;;;;5.53;1.15;;;9.80;99.90;;;;;;5094157;27;20573;-67
2024/03/17 13:55:41;;;;;;;1.50;0.77;;;9.90;99.90;;;;;;5066194;28;20205;-67
2024/03/17 13:58:08;;;;;;;0.52;0.52;;;9.90;99.90;;;;;;5063153;28;20216;-68
2024/03/17 14:00:39;;;;;;;1.92;0.90;;;9.90;99.90;;;;;;5077298;28;20248;-67
2024/03/17 14:03:06;;;;;;;4.50;1.20;;;9.90;99.90;;;;;;5047648;28;20205;-67
2024/03/17 14:05:34;;;;;;;1.08;1.05;;;9.80;99.90;;;;;;5046231;28;20204;-68
2024/03/17 14:08:01;;;;;;;2.50;1.27;;;9.80;99.90;;;;;;5054846;28;20205;-68
2024/03/17 14:10:29;;;;;;;1.65;0.70;;;9.70;99.90;;;;;;5059760;28;20198;-68
2024/03/17 14:12:56;;;;;;;0.90;0.88;;;9.70;99.90;;;;;;5062069;28;20229;-67
2024/03/17 14:15:24;;;;;;;1.70;1.60;;;9.70;99.90;;;;;;5056143;28;20205;-67
2024/03/17 14:17:50;;;;;;;2.15;1.05;;;9.70;99.90;;;;;;5061331;28;20220;-68
2024/03/17 14:20:18;;;;;;;4.72;0.80;;;9.70;99.90;;;;;;5053860;28;20286;-67
2024/03/17 14:22:48;;;;;;;2.45;1.50;;;9.80;99.90;;;;;;5055089;28;20875;-68
2024/03/17 14:25:17;;;;;;;1.40;0.77;;;9.80;99.90;;;;;;5045676;28;20206;-67
2024/03/17 14:27:45;;;;;;;0.50;0.50;;;9.90;99.90;;;;;;5054676;28;20237;-67
2024/03/17 14:30:16;;;;;;;2.33;0.98;;;9.90;99.90;;;;;;5056512;28;20557;-68
2024/03/17 14:32:43;;;;;;;0.90;0.90;;;10.00;99.90;;;;;;5050077;28;20230;-67
2024/03/17 14:35:14;;;;;;;1.45;0.65;;;10.10;99.90;;;;;;5058475;28;20216;-68
2024/03/17 14:37:42;;;;;;;6.18;0.95;;;10.10;99.90;;;;;;5065743;28;20209;-69
2024/03/17 14:40:16;;;;;;;9.02;1.25;;;10.10;99.90;;;;;;5050985;28;20213;-67
2024/03/17 14:42:44;;;;;;;1.30;0.90;;;10.20;99.90;;;;;;5041257;28;20278;-67
2024/03/17 14:45:12;;;;;;;13.30;1.65;;;10.20;99.90;;;;;;5051745;28;20216;-67
2024/03/17 14:47:39;;;;;;;1.27;0.90;;;10.20;99.90;;;;;;5054207;28;20257;-67
2024/03/17 14:50:08;;;;;;;3.65;0.98;;;10.20;99.90;;;;;;5049659;28;20231;-67
2024/03/17 14:52:34;;;;;;;2.33;1.23;;;10.20;99.90;;;;;;5057573;28;20225;-69
2024/03/17 14:55:01;;;;;;;1.90;1.35;;;10.30;99.90;;;;;;5054064;28;20202;-68
2024/03/17 14:57:28;;;;;;;9.70;2.67;;;10.30;99.90;;;;;;5040129;28;20201;-69
2024/03/17 14:59:56;;;;;;;4.43;2.53;;;10.30;99.90;;;;;;5047647;28;20213;-69
2024/03/17 15:02:23;;;;;;;1.83;0.75;;;10.20;99.90;;;;;;5047275;28;20222;-69
2024/03/17 15:04:51;;;;;;;0.80;0.80;;;10.10;99.90;;;;;;5030091;28;20202;-68
2024/03/17 15:07:18;;;;;;;4.93;2.15;;;10.20;99.90;;;;;;5030371;28;20249;-68
2024/03/17 15:09:45;;;;;;;1.77;0.85;;;10.20;99.90;;;;;;5030556;28;20673;-68
2024/03/17 15:12:11;;;;;;;0.63;0.63;;;10.10;99.90;;;;;;5031973;28;20226;-69
2024/03/17 15:14:38;;;;;;;2.03;0.68;;;10.00;99.90;;;;;;5030210;28;20232;-69
2024/03/17 15:17:06;;;;;;;1.23;1.23;;;10.00;99.90;;;;;;5030816;28;20233;-68
2024/03/17 15:19:34;;;;;;;1.10;1.00;;;9.90;99.90;;;;;;5032768;28;20264;-68
2024/03/17 15:22:01;;;;;;;0.88;0.88;;;9.90;99.90;;;;;;5032986;28;20233;-68
2024/03/17 15:24:27;;;;;;;0.80;0.80;;;9.80;99.90;;;;;;5031228;28;20202;-68
2024/03/17 15:26:54;;;;;;;2.10;1.00;;;9.80;99.90;;;;;;5032442;28;20289;-68
2024/03/17 15:29:21;;;;;;;2.35;0.70;;;9.80;99.90;;;;;;5031051;28;20206;-69
2024/03/17 15:31:47;;;;;;;0.95;0.38;;;9.80;99.90;;;;;;5032177;28;20234;-69
2024/03/17 15:34:16;;;;;;;1.05;0.60;;;9.80;99.90;;;;;;5030487;28;20210;-67
2024/03/17 15:36:42;;;;;;;4.05;0.80;;;9.90;99.90;;;;;;5032837;28;20645;-67
2024/03/17 15:39:11;;;;;;;2.47;0.77;;;9.80;99.90;;;;;;5033064;28;20234;-68
2024/03/17 15:41:38;;;;;;;1.55;0.50;;;9.80;99.90;;;;;;5032523;28;20234;-67
2024/03/17 15:44:04;;;;;;;0.70;0.70;;;9.80;99.90;;;;;;5028332;28;20669;-68
2024/03/17 15:46:32;;;;;;;5.68;0.70;;;9.80;99.90;;;;;;5032035;28;20203;-68
2024/03/17 15:48:58;;;;;;;0.52;0.52;;;9.80;99.90;;;;;;5031973;28;20210;-68
2024/03/17 15:51:27;;;;;;;0.90;0.85;;;9.80;99.90;;;;;;5032235;28;20226;-68
2024/03/17 15:53:54;;;;;;;1.80;1.00;;;9.70;99.90;;;;;;5031365;28;20206;-67
2024/03/17 15:56:20;;;;;;;0.70;0.70;;;9.80;99.90;;;;;;5031645;28;20198;-67
2024/03/17 15:58:47;;;;;;;1.75;0.98;;;9.80;99.90;;;;;;5031664;28;20211;-67
2024/03/17 16:01:14;;;;;;;0.90;0.90;;;9.70;99.90;;;;;;5030766;28;20229;-67
2024/03/17 16:03:40;;;;;;;0.50;0.50;;;9.70;99.90;;;;;;5029447;28;21161;-68
2024/03/17 16:06:11;;;;;;;4.68;0.88;;;9.70;99.90;;;;;;5032046;28;20566;-67
2024/03/17 16:08:42;;;;;;;0.68;0.55;;;9.70;99.90;;;;;;5029447;28;20207;-68
2024/03/17 16:11:12;;;;;;;1.10;0.50;;;9.60;99.90;;;;;;5030994;28;20822;-71
2024/03/17 16:13:40;;;;;;;3.17;1.58;;;9.60;99.90;;;;;;5028618;28;20237;-71
2024/03/17 16:16:09;;;;;;;1.45;1.30;;;9.60;99.90;;;;;;5029038;28;20214;-71
2024/03/17 16:18:36;;;;;;;1.13;0.80;;;9.60;99.90;;;;;;5030112;28;20207;-71
2024/03/17 16:21:08;;;;;;;3.00;1.00;;;9.40;99.90;;;;;;5036372;28;20223;-71
2024/03/17 16:23:40;;;;;;;1.95;1.85;;;9.40;99.90;;;;;;5032838;28;20668;-71
2024/03/17 16:26:08;;;;;;;1.00;1.00;;;9.30;99.90;;;;;;5046711;28;20363;-71
2024/03/17 16:28:36;;;;;;;0.40;0.40;;;9.30;99.90;;;;;;5033588;28;20202;-71
2024/03/17 16:31:06;;;;;;;1.75;0.77;;;9.20;99.90;;;;;;5030170;28;20233;-71
2024/03/17 16:33:33;;;;;;;2.60;0.60;;;9.20;99.90;;;;;;5029712;28;20237;-71
2024/03/17 16:36:01;;;;;;;5.90;0.70;;;9.10;99.90;;;;;;5046855;28;20214;-70
2024/03/17 16:38:31;;;;;;;0.88;0.60;;;9.00;99.90;;;;;;5036544;28;20214;-71
2024/03/17 16:41:01;;;;;;;2.00;0.80;;;9.00;99.90;;;;;;5031215;28;20678;-71
2024/03/17 16:43:39;;;;;;;0.70;0.70;;;8.90;99.90;;;;;;5042150;28;20332;-71
2024/03/17 16:46:20;;;;;;;1.27;1.27;;;8.80;99.90;;;;;;5037591;28;20210;-71
2024/03/17 16:48:48;;;;;;;1.35;1.35;;;8.80;99.90;;;;;;5027582;28;20198;-70
2024/03/17 16:51:18;;;;;;;0.50;0.50;;;8.70;99.90;;;;;;5029140;28;20333;-70
2024/03/17 16:53:45;;;;;;;6.13;1.50;;;8.60;99.90;;;;;;5027673;28;20262;-69
2024/03/17 16:56:13;;;;;;;2.30;0.88;;;8.60;99.90;;;;;;5029560;28;20808;-69
2024/03/17 16:58:40;;;;;;;2.03;1.05;;;8.60;99.90;;;;;;5026683;28;20613;-69
2024/03/17 17:01:08;;;;;;;2.72;0.65;;;8.50;99.90;;;;;;5029062;28;20229;-69
2024/03/17 17:03:37;;;;;;;0.40;0.40;;;8.40;99.90;;;;;;5025297;28;20206;-69
2024/03/17 17:06:04;;;;;;;5.60;1.20;;;8.30;99.90;;;;;;5033015;28;20210;-70
2024/03/17 17:08:31;;;;;;;1.52;0.40;;;8.20;99.90;;;;;;5017212;28;20222;-69
2024/03/17 17:10:58;;;;;;;0.70;0.70;;;8.20;99.90;;;;;;5019907;28;20742;-69
2024/03/17 17:13:27;;;;;;;2.38;1.20;;;8.10;99.90;;;;;;5024998;28;20225;-69
2024/03/17 17:15:55;;;;;;;1.27;0.65;;;8.00;99.90;;;;;;5024602;28;20225;-69
2024/03/17 17:18:51;;;;;;;1.27;0.35;;;8.00;99.90;;;;;;5023715;28;20260;-69
2024/03/17 17:21:17;;;;;;;1.30;1.10;;;7.90;99.90;;;;;;5026934;28;20233;-70
2024/03/17 17:23:46;;;;;;;1.50;1.40;;;7.80;99.90;;;;;;5025065;28;20317;-69
2024/03/17 17:26:16;;;;;;;2.67;0.90;;;7.80;99.90;;;;;;5025790;28;20267;-69
2024/03/17 17:28:45;;;;;;;1.95;0.50;;;7.80;99.90;;;;;;5026671;28;20198;-70
2024/03/17 17:31:12;;;;;;;1.75;0.85;;;7.70;99.90;;;;;;5026542;28;20232;-70
2024/03/17 17:33:39;;;;;;;1.00;1.00;;;7.70;99.90;;;;;;5025575;28;20802;-70
2024/03/17 17:36:07;;;;;;;3.03;0.70;;;7.60;99.90;;;;;;5027032;28;20317;-70
2024/03/17 17:38:36;;;;;;;2.90;0.80;;;7.60;99.90;;;;;;5027187;28;20573;-70
2024/03/17 17:41:09;;;;;;;1.63;0.70;;;7.50;99.90;;;;;;5025891;28;20280;-70
2024/03/17 17:43:39;;;;;;;0.93;0.93;;;7.50;99.90;;;;;;5027972;28;20641;-71
2024/03/17 17:46:07;;;;;;;2.88;1.42;;;7.40;99.90;;;;;;5025784;28;20641;-71
2024/03/17 17:48:35;;;;;;;0.52;0.52;;;7.40;99.90;;;;;;5027169;28;20213;-70
2024/03/17 17:51:03;;;;;;;0.50;0.50;;;7.30;99.90;;;;;;5024944;28;20245;-70
2024/03/17 17:53:29;;;;;;;0.90;0.90;;;7.30;99.90;;;;;;5025629;28;20324;-70
2024/03/17 17:55:56;;;;;;;2.15;1.00;;;7.30;99.90;;;;;;5027404;28;20340;-70
2024/03/17 17:58:24;;;;;;;9.18;0.85;;;7.20;99.90;;;;;;5027842;28;20216;-70
2024/03/17 18:00:57;;;;;;;2.25;0.80;;;7.20;99.90;;;;;;5027893;28;20229;-70
2024/03/17 18:03:25;;;;;;;0.90;0.47;;;7.10;99.90;;;;;;5023093;28;20199;-70
2024/03/17 18:05:53;;;;;;;7.22;0.80;;;7.10;99.90;;;;;;5020580;28;20209;-70
2024/03/17 18:08:21;;;;;;;0.40;0.40;;;7.00;99.90;;;;;;5025099;28;20254;-69
2024/03/17 18:10:47;;;;;;;0.80;0.80;;;6.90;99.90;;;;;;5022773;28;20235;-69